AAL2359 KDEN-KDFW
Flight info
| Callsign | AAL2359 |
|---|---|
| Flight time | 1h 19m |
| Altitude | 35000 |
| Route | SLEEK2 SLEEK DCT EZEEE DCT MDANO VKTRY2 |
| Aircraft | A321/M-SDE3FGHIRWY/LB1 |
Departure
| Time | 2026-05-04 18:33 |
|---|---|
| Airport | Denver International Airport (KDEN) |
Arrival
| Time | 2026-05-04 19:53 |
|---|---|
| Airport | Dallas Fort Worth International Airport (KDFW) |
| Time | Latitude | Longitude | Altitude | Speed | Heading |
|---|---|---|---|---|---|
| 2026-05-04 18:11 | 39.86250 | -104.67529 | 5366 ft | 0 kts | 0° |
| 2026-05-04 18:18 | 39.86242 | -104.67529 | 5366 ft | 4 kts | 0° |
| 2026-05-04 18:19 | 39.86201 | -104.67529 | 5364 ft | 2 kts | 0° |
| 2026-05-04 18:19 | 39.86199 | -104.67529 | 5364 ft | 0 kts | 0° |
| 2026-05-04 18:26 | 39.86206 | -104.67533 | 5362 ft | 2 kts | 334° |
| 2026-05-04 18:26 | 39.86209 | -104.67563 | 5362 ft | 5 kts | 258° |
| 2026-05-04 18:26 | 39.86194 | -104.67616 | 5364 ft | 7 kts | 252° |
| 2026-05-04 18:27 | 39.86174 | -104.67683 | 5363 ft | 9 kts | 225° |
| 2026-05-04 18:27 | 39.86137 | -104.67752 | 5363 ft | 10 kts | 267° |
| 2026-05-04 18:27 | 39.86138 | -104.67847 | 5366 ft | 11 kts | 270° |
| 2026-05-04 18:27 | 39.86138 | -104.67951 | 5366 ft | 12 kts | 269° |
| 2026-05-04 18:28 | 39.86138 | -104.68059 | 5365 ft | 12 kts | 270° |
| 2026-05-04 18:28 | 39.86137 | -104.68152 | 5365 ft | 2 kts | 271° |
| 2026-05-04 18:28 | 39.86138 | -104.68184 | 5366 ft | 4 kts | 271° |
| 2026-05-04 18:28 | 39.86139 | -104.68235 | 5366 ft | 7 kts | 271° |
| 2026-05-04 18:29 | 39.86140 | -104.68308 | 5365 ft | 9 kts | 271° |
| 2026-05-04 18:29 | 39.86141 | -104.68395 | 5366 ft | 10 kts | 271° |
| 2026-05-04 18:29 | 39.86151 | -104.68489 | 5366 ft | 11 kts | 301° |
| 2026-05-04 18:29 | 39.86225 | -104.68506 | 5364 ft | 12 kts | 1° |
| 2026-05-04 18:30 | 39.86411 | -104.68511 | 5364 ft | 12 kts | 339° |
| 2026-05-04 18:30 | 39.86430 | -104.68561 | 5365 ft | 6 kts | 269° |
| 2026-05-04 18:30 | 39.86430 | -104.68621 | 5366 ft | 7 kts | 270° |
| 2026-05-04 18:31 | 39.86430 | -104.68680 | 5368 ft | 6 kts | 270° |
| 2026-05-04 18:31 | 39.86440 | -104.68713 | 5365 ft | 2 kts | 327° |
| 2026-05-04 18:31 | 39.86458 | -104.68718 | 5368 ft | 2 kts | 358° |
| 2026-05-04 18:31 | 39.86463 | -104.68717 | 5368 ft | 0 kts | 0° |
| 2026-05-04 18:32 | 39.86486 | -104.68717 | 5366 ft | 10 kts | 0° |
| 2026-05-04 18:32 | 39.86746 | -104.68717 | 5365 ft | 72 kts | 360° |
| 2026-05-04 18:33 | 39.87461 | -104.68706 | 5366 ft | 132 kts | 0° |
| 2026-05-04 18:33 | 39.88556 | -104.68693 | 5364 ft | 180 kts | 1° |
| 2026-05-04 18:33 | 39.89867 | -104.68685 | 5913 ft | 186 kts | 356° |
| 2026-05-04 18:33 | 39.91158 | -104.68524 | 6627 ft | 188 kts | 13° |
| 2026-05-04 18:34 | 39.92238 | -104.67557 | 7180 ft | 202 kts | 49° |
| 2026-05-04 18:34 | 39.92761 | -104.65796 | 7470 ft | 218 kts | 85° |
| 2026-05-04 18:34 | 39.92450 | -104.63816 | 7728 ft | 232 kts | 111° |
| 2026-05-04 18:34 | 39.91726 | -104.61865 | 7968 ft | 247 kts | 117° |
| 2026-05-04 18:35 | 39.90900 | -104.59822 | 8093 ft | 265 kts | 117° |
| 2026-05-04 18:35 | 39.89991 | -104.57620 | 8152 ft | 292 kts | 118° |
| 2026-05-04 18:35 | 39.89024 | -104.55250 | 8694 ft | 299 kts | 117° |
| 2026-05-04 18:35 | 39.88051 | -104.52810 | 9259 ft | 307 kts | 117° |
| 2026-05-04 18:36 | 39.87060 | -104.50325 | 9928 ft | 309 kts | 117° |
| 2026-05-04 18:36 | 39.86043 | -104.47801 | 10292 ft | 326 kts | 121° |
| 2026-05-04 18:36 | 39.84512 | -104.45512 | 10430 ft | 347 kts | 144° |
| 2026-05-04 18:36 | 39.82314 | -104.44064 | 10625 ft | 361 kts | 167° |
| 2026-05-04 18:37 | 39.79807 | -104.43740 | 11127 ft | 365 kts | 183° |
| 2026-05-04 18:37 | 39.77255 | -104.43637 | 11714 ft | 370 kts | 176° |
| 2026-05-04 18:37 | 39.74681 | -104.43326 | 12398 ft | 372 kts | 176° |
| 2026-05-04 18:37 | 39.72089 | -104.43029 | 13034 ft | 376 kts | 176° |
| 2026-05-04 18:38 | 39.69470 | -104.42733 | 13658 ft | 379 kts | 176° |
| 2026-05-04 18:38 | 39.66827 | -104.42432 | 14244 ft | 382 kts | 176° |
| 2026-05-04 18:38 | 39.64171 | -104.42124 | 14837 ft | 384 kts | 176° |
| 2026-05-04 18:38 | 39.61500 | -104.41806 | 15439 ft | 386 kts | 176° |
| 2026-05-04 18:39 | 39.58815 | -104.41481 | 16029 ft | 389 kts | 176° |
| 2026-05-04 18:39 | 39.56113 | -104.41156 | 16627 ft | 391 kts | 176° |
| 2026-05-04 18:39 | 39.53398 | -104.40832 | 17235 ft | 393 kts | 176° |
| 2026-05-04 18:39 | 39.50667 | -104.40508 | 17817 ft | 395 kts | 176° |
| 2026-05-04 18:40 | 39.47917 | -104.40183 | 18354 ft | 398 kts | 176° |
| 2026-05-04 18:40 | 39.45145 | -104.39856 | 18856 ft | 400 kts | 176° |
| 2026-05-04 18:40 | 39.42353 | -104.39527 | 19375 ft | 403 kts | 176° |
| 2026-05-04 18:40 | 39.39558 | -104.39198 | 19899 ft | 405 kts | 177° |
| 2026-05-04 18:41 | 39.36732 | -104.38867 | 20407 ft | 408 kts | 177° |
| 2026-05-04 18:41 | 39.33888 | -104.38534 | 20884 ft | 411 kts | 177° |
| 2026-05-04 18:41 | 39.31025 | -104.38198 | 21333 ft | 415 kts | 178° |
| 2026-05-04 18:41 | 39.28173 | -104.37862 | 21782 ft | 418 kts | 178° |
| 2026-05-04 18:42 | 39.25268 | -104.37520 | 22243 ft | 420 kts | 178° |
| 2026-05-04 18:42 | 39.22331 | -104.37175 | 22702 ft | 423 kts | 178° |
| 2026-05-04 18:42 | 39.19392 | -104.36831 | 23160 ft | 426 kts | 178° |
| 2026-05-04 18:42 | 39.16429 | -104.36487 | 23581 ft | 429 kts | 178° |
| 2026-05-04 18:43 | 39.13455 | -104.35970 | 23922 ft | 435 kts | 172° |
| 2026-05-04 18:43 | 39.10490 | -104.35028 | 24260 ft | 440 kts | 171° |
| 2026-05-04 18:43 | 39.07513 | -104.34065 | 24601 ft | 443 kts | 171° |
| 2026-05-04 18:43 | 39.04512 | -104.33101 | 24942 ft | 445 kts | 171° |
| 2026-05-04 18:44 | 39.01492 | -104.32136 | 25272 ft | 449 kts | 172° |
| 2026-05-04 18:44 | 39.00470 | -104.31809 | 25382 ft | 450 kts | 172° |
| 2026-05-04 18:44 | 38.95396 | -104.30195 | 25928 ft | 454 kts | 172° |
| 2026-05-04 18:44 | 38.92317 | -104.29218 | 26234 ft | 457 kts | 172° |
| 2026-05-04 18:45 | 38.89216 | -104.28231 | 26497 ft | 461 kts | 173° |
| 2026-05-04 18:45 | 38.86086 | -104.27233 | 26772 ft | 464 kts | 173° |
| 2026-05-04 18:45 | 38.82944 | -104.26232 | 27065 ft | 467 kts | 173° |
| 2026-05-04 18:45 | 38.79777 | -104.25225 | 27344 ft | 469 kts | 173° |
| 2026-05-04 18:46 | 38.76599 | -104.24218 | 27603 ft | 472 kts | 173° |
| 2026-05-04 18:46 | 38.73409 | -104.23208 | 27871 ft | 474 kts | 173° |
| 2026-05-04 18:46 | 38.70189 | -104.22188 | 28091 ft | 477 kts | 174° |
| 2026-05-04 18:46 | 38.66958 | -104.21165 | 28376 ft | 480 kts | 174° |
| 2026-05-04 18:47 | 38.63708 | -104.20131 | 28673 ft | 482 kts | 173° |
| 2026-05-04 18:47 | 38.60439 | -104.19095 | 28970 ft | 484 kts | 174° |
| 2026-05-04 18:47 | 38.57159 | -104.18059 | 29295 ft | 486 kts | 174° |
| 2026-05-04 18:47 | 38.53888 | -104.16947 | 29712 ft | 490 kts | 169° |
| 2026-05-04 18:48 | 38.50699 | -104.15266 | 30044 ft | 500 kts | 160° |
| 2026-05-04 18:48 | 38.47702 | -104.12918 | 30312 ft | 512 kts | 151° |
| 2026-05-04 18:48 | 38.44915 | -104.10000 | 30512 ft | 520 kts | 146° |
| 2026-05-04 18:48 | 38.42151 | -104.06994 | 30756 ft | 522 kts | 147° |
| 2026-05-04 18:49 | 38.39418 | -104.04038 | 31023 ft | 523 kts | 148° |
| 2026-05-04 18:49 | 38.36632 | -104.01040 | 31299 ft | 524 kts | 148° |
| 2026-05-04 18:49 | 38.33845 | -103.98047 | 31577 ft | 524 kts | 148° |
| 2026-05-04 18:49 | 38.31050 | -103.95054 | 31862 ft | 525 kts | 148° |
| 2026-05-04 18:50 | 38.28245 | -103.92053 | 32112 ft | 526 kts | 149° |
| 2026-05-04 18:50 | 38.25442 | -103.89057 | 32407 ft | 526 kts | 149° |
| 2026-05-04 18:50 | 38.22641 | -103.86060 | 32735 ft | 526 kts | 150° |
| 2026-05-04 18:50 | 38.19831 | -103.83055 | 33047 ft | 527 kts | 150° |
| 2026-05-04 18:51 | 38.17017 | -103.80050 | 33302 ft | 529 kts | 150° |
| 2026-05-04 18:51 | 38.14192 | -103.77038 | 33585 ft | 530 kts | 150° |
| 2026-05-04 18:51 | 38.11358 | -103.74019 | 33868 ft | 530 kts | 150° |
| 2026-05-04 18:51 | 38.08529 | -103.71012 | 34139 ft | 530 kts | 151° |
| 2026-05-04 18:52 | 38.06661 | -103.69028 | 34309 ft | 529 kts | 151° |
| 2026-05-04 18:52 | 38.02897 | -103.65029 | 34737 ft | 526 kts | 151° |
| 2026-05-04 18:52 | 38.01036 | -103.63052 | 34807 ft | 526 kts | 151° |
| 2026-05-04 18:53 | 37.95442 | -103.57107 | 34667 ft | 524 kts | 151° |
| 2026-05-04 18:53 | 37.89855 | -103.51192 | 34671 ft | 523 kts | 152° |
| 2026-05-04 18:54 | 37.84249 | -103.45285 | 34688 ft | 524 kts | 152° |
| 2026-05-04 18:54 | 37.78647 | -103.39390 | 34678 ft | 524 kts | 152° |
| 2026-05-04 18:55 | 37.73039 | -103.33495 | 34683 ft | 524 kts | 152° |
| 2026-05-04 18:55 | 37.64616 | -103.24656 | 34691 ft | 524 kts | 152° |
| 2026-05-04 18:56 | 37.58984 | -103.18774 | 34697 ft | 524 kts | 152° |
| 2026-05-04 18:56 | 37.53358 | -103.12907 | 34729 ft | 524 kts | 152° |
| 2026-05-04 18:57 | 37.47766 | -103.07080 | 34702 ft | 525 kts | 152° |
| 2026-05-04 18:57 | 37.42128 | -103.01216 | 34680 ft | 525 kts | 152° |
| 2026-05-04 18:58 | 37.36489 | -102.95356 | 34697 ft | 526 kts | 152° |
| 2026-05-04 18:58 | 37.30825 | -102.89499 | 34682 ft | 526 kts | 152° |
| 2026-05-04 18:59 | 37.25163 | -102.83649 | 34658 ft | 526 kts | 152° |
| 2026-05-04 18:59 | 37.19488 | -102.77794 | 34660 ft | 527 kts | 152° |
| 2026-05-04 19:00 | 37.13807 | -102.71955 | 34656 ft | 528 kts | 152° |
| 2026-05-04 19:00 | 37.08139 | -102.66138 | 34662 ft | 529 kts | 152° |
| 2026-05-04 19:01 | 37.02429 | -102.60287 | 34630 ft | 530 kts | 151° |
| 2026-05-04 19:01 | 36.96711 | -102.54423 | 34640 ft | 531 kts | 151° |
| 2026-05-04 19:02 | 36.90969 | -102.48554 | 34654 ft | 532 kts | 151° |
| 2026-05-04 19:02 | 36.85223 | -102.42702 | 34662 ft | 532 kts | 151° |
| 2026-05-04 19:03 | 36.79508 | -102.36892 | 34643 ft | 533 kts | 151° |
| 2026-05-04 19:03 | 36.73728 | -102.31028 | 34640 ft | 535 kts | 151° |
| 2026-05-04 19:04 | 36.67928 | -102.25153 | 34652 ft | 537 kts | 151° |
| 2026-05-04 19:04 | 36.62116 | -102.19284 | 34660 ft | 537 kts | 151° |
| 2026-05-04 19:05 | 36.56303 | -102.13420 | 34661 ft | 539 kts | 151° |
| 2026-05-04 19:05 | 36.50478 | -102.07537 | 34666 ft | 539 kts | 151° |
| 2026-05-04 19:06 | 36.44640 | -102.01674 | 34682 ft | 540 kts | 151° |
| 2026-05-04 19:06 | 36.38786 | -101.95815 | 34631 ft | 540 kts | 151° |
| 2026-05-04 19:07 | 36.32935 | -101.89959 | 34661 ft | 541 kts | 151° |
| 2026-05-04 19:07 | 36.27070 | -101.84092 | 34656 ft | 541 kts | 151° |
| 2026-05-04 19:08 | 36.21201 | -101.78244 | 34675 ft | 541 kts | 151° |
| 2026-05-04 19:08 | 36.15352 | -101.72430 | 34646 ft | 542 kts | 151° |
| 2026-05-04 19:09 | 36.09459 | -101.66584 | 34678 ft | 542 kts | 151° |
| 2026-05-04 19:09 | 36.03572 | -101.60749 | 34683 ft | 543 kts | 151° |
| 2026-05-04 19:10 | 35.97666 | -101.54915 | 34694 ft | 543 kts | 151° |
| 2026-05-04 19:10 | 35.91764 | -101.49081 | 34665 ft | 543 kts | 150° |
| 2026-05-04 19:11 | 35.85858 | -101.43256 | 34768 ft | 544 kts | 150° |
| 2026-05-04 19:11 | 35.80004 | -101.37305 | 34816 ft | 551 kts | 143° |
| 2026-05-04 19:12 | 35.71897 | -101.27166 | 34818 ft | 554 kts | 142° |
| 2026-05-04 19:13 | 35.66487 | -101.20409 | 34777 ft | 554 kts | 142° |
| 2026-05-04 19:13 | 35.61071 | -101.13659 | 34811 ft | 554 kts | 142° |
| 2026-05-04 19:14 | 35.55655 | -101.06933 | 34827 ft | 554 kts | 142° |
| 2026-05-04 19:14 | 35.50230 | -101.00202 | 34822 ft | 554 kts | 142° |
| 2026-05-04 19:15 | 35.44840 | -100.93517 | 34796 ft | 554 kts | 142° |
| 2026-05-04 19:15 | 35.39411 | -100.86802 | 34763 ft | 554 kts | 142° |
| 2026-05-04 19:16 | 35.33980 | -100.80103 | 34732 ft | 554 kts | 142° |
| 2026-05-04 19:16 | 35.28553 | -100.73413 | 34713 ft | 554 kts | 142° |
| 2026-05-04 19:17 | 35.23113 | -100.66740 | 34693 ft | 553 kts | 142° |
| 2026-05-04 19:17 | 35.17669 | -100.60085 | 34704 ft | 553 kts | 142° |
| 2026-05-04 19:18 | 35.12225 | -100.53421 | 34719 ft | 553 kts | 142° |
| 2026-05-04 19:18 | 35.06774 | -100.46767 | 34711 ft | 553 kts | 142° |
| 2026-05-04 19:19 | 35.01329 | -100.40121 | 34670 ft | 554 kts | 142° |
| 2026-05-04 19:19 | 34.95871 | -100.33474 | 34683 ft | 554 kts | 142° |
| 2026-05-04 19:20 | 34.90396 | -100.26837 | 34697 ft | 554 kts | 142° |
| 2026-05-04 19:20 | 34.84923 | -100.20213 | 34720 ft | 554 kts | 142° |
| 2026-05-04 19:21 | 34.79484 | -100.13638 | 34683 ft | 554 kts | 142° |
| 2026-05-04 19:21 | 34.73999 | -100.07017 | 34692 ft | 554 kts | 142° |
| 2026-05-04 19:22 | 34.68513 | -100.00413 | 34704 ft | 554 kts | 142° |
| 2026-05-04 19:22 | 34.63026 | -99.93821 | 34708 ft | 555 kts | 142° |
| 2026-05-04 19:23 | 34.57540 | -99.87232 | 34678 ft | 555 kts | 142° |
| 2026-05-04 19:23 | 34.52043 | -99.80648 | 34707 ft | 555 kts | 142° |
| 2026-05-04 19:24 | 34.46542 | -99.74081 | 34707 ft | 555 kts | 142° |
| 2026-05-04 19:24 | 34.41031 | -99.67508 | 34717 ft | 555 kts | 142° |
| 2026-05-04 19:25 | 34.35524 | -99.60947 | 34696 ft | 556 kts | 141° |
| 2026-05-04 19:25 | 34.31449 | -99.54834 | 34701 ft | 566 kts | 125° |
| 2026-05-04 19:26 | 34.27508 | -99.46563 | 34717 ft | 568 kts | 122° |
| 2026-05-04 19:26 | 34.23564 | -99.38272 | 34732 ft | 568 kts | 123° |
| 2026-05-04 19:27 | 34.19601 | -99.29992 | 34743 ft | 569 kts | 123° |
| 2026-05-04 19:27 | 34.15636 | -99.21706 | 34520 ft | 569 kts | 123° |
| 2026-05-04 19:27 | 34.13652 | -99.17570 | 34292 ft | 569 kts | 123° |
| 2026-05-04 19:28 | 34.11670 | -99.13433 | 34022 ft | 569 kts | 123° |
| 2026-05-04 19:28 | 34.09685 | -99.09288 | 33794 ft | 569 kts | 123° |
| 2026-05-04 19:28 | 34.07698 | -99.05147 | 33577 ft | 570 kts | 123° |
| 2026-05-04 19:28 | 34.05711 | -99.01021 | 33212 ft | 570 kts | 123° |
| 2026-05-04 19:29 | 34.03691 | -98.96840 | 31882 ft | 584 kts | 123° |
| 2026-05-04 19:29 | 34.01632 | -98.92589 | 31070 ft | 585 kts | 123° |
| 2026-05-04 19:29 | 33.99583 | -98.88354 | 30359 ft | 583 kts | 122° |
| 2026-05-04 19:29 | 33.97572 | -98.84200 | 29738 ft | 579 kts | 122° |
| 2026-05-04 19:30 | 33.95549 | -98.80020 | 28989 ft | 575 kts | 122° |
| 2026-05-04 19:30 | 33.93545 | -98.75878 | 28398 ft | 569 kts | 122° |
| 2026-05-04 19:30 | 33.91564 | -98.71779 | 27876 ft | 561 kts | 122° |
| 2026-05-04 19:30 | 33.89607 | -98.67735 | 27340 ft | 554 kts | 122° |
| 2026-05-04 19:31 | 33.87676 | -98.63770 | 27073 ft | 542 kts | 122° |
| 2026-05-04 19:31 | 33.85790 | -98.59928 | 26871 ft | 528 kts | 122° |
| 2026-05-04 19:31 | 33.83922 | -98.56153 | 26463 ft | 520 kts | 123° |
| 2026-05-04 19:31 | 33.82072 | -98.52436 | 25998 ft | 514 kts | 122° |
| 2026-05-04 19:32 | 33.80259 | -98.48766 | 25557 ft | 507 kts | 122° |
| 2026-05-04 19:32 | 33.78477 | -98.45132 | 25106 ft | 501 kts | 122° |
| 2026-05-04 19:32 | 33.76720 | -98.41532 | 24630 ft | 495 kts | 122° |
| 2026-05-04 19:32 | 33.74989 | -98.37971 | 24202 ft | 489 kts | 122° |
| 2026-05-04 19:33 | 33.73283 | -98.34463 | 23750 ft | 483 kts | 121° |
| 2026-05-04 19:33 | 33.71604 | -98.31016 | 23085 ft | 473 kts | 122° |
| 2026-05-04 19:33 | 33.69950 | -98.27633 | 22165 ft | 466 kts | 122° |
| 2026-05-04 19:33 | 33.68315 | -98.24302 | 21279 ft | 458 kts | 122° |
| 2026-05-04 19:34 | 33.66730 | -98.21082 | 20324 ft | 449 kts | 122° |
| 2026-05-04 19:34 | 33.65148 | -98.17874 | 19328 ft | 441 kts | 122° |
| 2026-05-04 19:34 | 33.63600 | -98.14735 | 18645 ft | 431 kts | 122° |
| 2026-05-04 19:34 | 33.62071 | -98.11643 | 18174 ft | 430 kts | 123° |
| 2026-05-04 19:35 | 33.60539 | -98.08554 | 17638 ft | 428 kts | 123° |
| 2026-05-04 19:35 | 33.59022 | -98.05498 | 17102 ft | 425 kts | 123° |
| 2026-05-04 19:35 | 33.57521 | -98.02474 | 16676 ft | 419 kts | 123° |
| 2026-05-04 19:35 | 33.56029 | -97.99473 | 16128 ft | 417 kts | 123° |
| 2026-05-04 19:36 | 33.54552 | -97.96507 | 15707 ft | 411 kts | 123° |
| 2026-05-04 19:36 | 33.53083 | -97.93579 | 15380 ft | 403 kts | 123° |
| 2026-05-04 19:36 | 33.51672 | -97.90763 | 15071 ft | 386 kts | 123° |
| 2026-05-04 19:36 | 33.50314 | -97.88043 | 14487 ft | 376 kts | 123° |
| 2026-05-04 19:37 | 33.48989 | -97.85381 | 14118 ft | 369 kts | 123° |
| 2026-05-04 19:37 | 33.47670 | -97.82737 | 13680 ft | 369 kts | 123° |
| 2026-05-04 19:37 | 33.46353 | -97.80098 | 13234 ft | 367 kts | 123° |
| 2026-05-04 19:37 | 33.45065 | -97.77513 | 12760 ft | 365 kts | 123° |
| 2026-05-04 19:38 | 33.43772 | -97.74919 | 12408 ft | 360 kts | 123° |
| 2026-05-04 19:38 | 33.42494 | -97.72354 | 11995 ft | 357 kts | 123° |
| 2026-05-04 19:38 | 33.41224 | -97.69814 | 11570 ft | 355 kts | 123° |
| 2026-05-04 19:38 | 33.39967 | -97.67301 | 11361 ft | 345 kts | 123° |
| 2026-05-04 19:39 | 33.38761 | -97.64892 | 11072 ft | 331 kts | 124° |
| 2026-05-04 19:39 | 33.37478 | -97.62661 | 10659 ft | 322 kts | 130° |
| 2026-05-04 19:39 | 33.36152 | -97.60517 | 10313 ft | 320 kts | 130° |
| 2026-05-04 19:39 | 33.34823 | -97.58364 | 9944 ft | 320 kts | 130° |
| 2026-05-04 19:40 | 33.33509 | -97.56229 | 9566 ft | 319 kts | 130° |
| 2026-05-04 19:40 | 33.32200 | -97.54106 | 9230 ft | 315 kts | 131° |
| 2026-05-04 19:40 | 33.30899 | -97.51998 | 8829 ft | 315 kts | 131° |
| 2026-05-04 19:40 | 33.29599 | -97.49886 | 8403 ft | 315 kts | 131° |
| 2026-05-04 19:41 | 33.28323 | -97.47777 | 8125 ft | 311 kts | 127° |
| 2026-05-04 19:41 | 33.27395 | -97.45428 | 7782 ft | 315 kts | 110° |
| 2026-05-04 19:41 | 33.27023 | -97.42846 | 7440 ft | 316 kts | 95° |
| 2026-05-04 19:41 | 33.26903 | -97.40239 | 6991 ft | 313 kts | 95° |
| 2026-05-04 19:42 | 33.26778 | -97.37651 | 6477 ft | 310 kts | 96° |
| 2026-05-04 19:42 | 33.26647 | -97.35097 | 6007 ft | 306 kts | 96° |
| 2026-05-04 19:42 | 33.26514 | -97.32571 | 5612 ft | 303 kts | 96° |
| 2026-05-04 19:42 | 33.26378 | -97.30056 | 5259 ft | 302 kts | 96° |
| 2026-05-04 19:43 | 33.26246 | -97.27599 | 5134 ft | 291 kts | 97° |
| 2026-05-04 19:43 | 33.26121 | -97.25226 | 5010 ft | 282 kts | 97° |
| 2026-05-04 19:43 | 33.26003 | -97.22902 | 5006 ft | 280 kts | 97° |
| 2026-05-04 19:43 | 33.25903 | -97.20575 | 5008 ft | 280 kts | 96° |
| 2026-05-04 19:44 | 33.25812 | -97.18255 | 5010 ft | 279 kts | 96° |
| 2026-05-04 19:44 | 33.25723 | -97.15938 | 4762 ft | 279 kts | 96° |
| 2026-05-04 19:44 | 33.25635 | -97.13636 | 4474 ft | 275 kts | 97° |
| 2026-05-04 19:44 | 33.25553 | -97.11559 | 4218 ft | 272 kts | 97° |
| 2026-05-04 19:45 | 33.25467 | -97.09341 | 4040 ft | 267 kts | 98° |
| 2026-05-04 19:45 | 33.25072 | -97.07249 | 4002 ft | 252 kts | 124° |
| 2026-05-04 19:45 | 33.23964 | -97.05766 | 4000 ft | 230 kts | 155° |
| 2026-05-04 19:45 | 33.22540 | -97.05234 | 4002 ft | 206 kts | 183° |
| 2026-05-04 19:46 | 33.21129 | -97.05263 | 4006 ft | 202 kts | 186° |
| 2026-05-04 19:46 | 33.19719 | -97.05308 | 3909 ft | 202 kts | 185° |
| 2026-05-04 19:46 | 33.18323 | -97.05325 | 3554 ft | 200 kts | 183° |
| 2026-05-04 19:46 | 33.16942 | -97.05333 | 3262 ft | 195 kts | 182° |
| 2026-05-04 19:47 | 33.15594 | -97.05340 | 3039 ft | 192 kts | 181° |
| 2026-05-04 19:47 | 33.14255 | -97.05348 | 2998 ft | 194 kts | 181° |
| 2026-05-04 19:47 | 33.12895 | -97.05355 | 3004 ft | 196 kts | 181° |
| 2026-05-04 19:47 | 33.11582 | -97.05361 | 2996 ft | 181 kts | 181° |
| 2026-05-04 19:48 | 33.10367 | -97.05367 | 3009 ft | 169 kts | 181° |
| 2026-05-04 19:48 | 33.09211 | -97.05373 | 3005 ft | 166 kts | 181° |
| 2026-05-04 19:48 | 33.08053 | -97.05379 | 3005 ft | 165 kts | 181° |
| 2026-05-04 19:48 | 33.06909 | -97.05385 | 2995 ft | 163 kts | 181° |
| 2026-05-04 19:49 | 33.05777 | -97.05391 | 2992 ft | 164 kts | 181° |
| 2026-05-04 19:49 | 33.04631 | -97.05397 | 3001 ft | 165 kts | 181° |
| 2026-05-04 19:49 | 33.03473 | -97.05403 | 2894 ft | 166 kts | 182° |
| 2026-05-04 19:49 | 33.02326 | -97.05409 | 2726 ft | 163 kts | 182° |
| 2026-05-04 19:50 | 33.01216 | -97.05415 | 2526 ft | 161 kts | 182° |
| 2026-05-04 19:50 | 33.00080 | -97.05421 | 2329 ft | 162 kts | 181° |
| 2026-05-04 19:50 | 32.99014 | -97.05426 | 2122 ft | 147 kts | 181° |
| 2026-05-04 19:50 | 32.98032 | -97.05431 | 1954 ft | 136 kts | 181° |
| 2026-05-04 19:51 | 32.97088 | -97.05436 | 1767 ft | 134 kts | 180° |
| 2026-05-04 19:51 | 32.96165 | -97.05441 | 1590 ft | 132 kts | 181° |
| 2026-05-04 19:51 | 32.95231 | -97.05445 | 1406 ft | 136 kts | 179° |
| 2026-05-04 19:51 | 32.94297 | -97.05447 | 1190 ft | 131 kts | 181° |
| 2026-05-04 19:52 | 32.93380 | -97.05452 | 1014 ft | 132 kts | 184° |
| 2026-05-04 19:52 | 32.92456 | -97.05457 | 840 ft | 132 kts | 184° |
| 2026-05-04 19:52 | 32.91543 | -97.05465 | 659 ft | 131 kts | 183° |
| 2026-05-04 19:52 | 32.90697 | -97.05470 | 620 ft | 105 kts | 180° |
| 2026-05-04 19:53 | 32.90140 | -97.05469 | 613 ft | 55 kts | 181° |
| 2026-05-04 19:53 | 32.89870 | -97.05472 | 610 ft | 29 kts | 179° |
| 2026-05-04 19:53 | 32.89705 | -97.05456 | 611 ft | 21 kts | 171° |
| 2026-05-04 19:53 | 32.89571 | -97.05395 | 608 ft | 21 kts | 151° |
| 2026-05-04 19:54 | 32.89446 | -97.05313 | 602 ft | 21 kts | 152° |
| 2026-05-04 19:54 | 32.89402 | -97.05230 | 598 ft | 12 kts | 91° |
| 2026-05-04 19:54 | 32.89402 | -97.05131 | 597 ft | 12 kts | 89° |
| 2026-05-04 19:54 | 32.89402 | -97.05030 | 599 ft | 12 kts | 89° |
| 2026-05-04 19:55 | 32.89402 | -97.04923 | 598 ft | 14 kts | 91° |
| 2026-05-04 19:55 | 32.89401 | -97.04806 | 595 ft | 11 kts | 90° |
| 2026-05-04 19:55 | 32.89445 | -97.04760 | 595 ft | 10 kts | 2° |
| 2026-05-04 19:55 | 32.89524 | -97.04765 | 597 ft | 12 kts | 358° |
| 2026-05-04 19:56 | 32.89609 | -97.04766 | 598 ft | 13 kts | 0° |
| 2026-05-04 19:56 | 32.89702 | -97.04764 | 598 ft | 14 kts | 1° |
| 2026-05-04 19:56 | 32.89808 | -97.04763 | 597 ft | 17 kts | 0° |
| 2026-05-04 19:56 | 32.89928 | -97.04764 | 598 ft | 17 kts | 359° |
| 2026-05-04 19:57 | 32.90049 | -97.04764 | 599 ft | 18 kts | 360° |
| 2026-05-04 19:57 | 32.90180 | -97.04762 | 597 ft | 17 kts | 1° |
| 2026-05-04 19:57 | 32.90285 | -97.04762 | 597 ft | 13 kts | 0° |
| 2026-05-04 19:57 | 32.90334 | -97.04727 | 596 ft | 9 kts | 81° |
| 2026-05-04 19:58 | 32.90334 | -97.04654 | 596 ft | 9 kts | 89° |
| 2026-05-04 19:58 | 32.90347 | -97.04598 | 596 ft | 5 kts | 70° |
| 2026-05-04 19:58 | 32.90357 | -97.04567 | 596 ft | 2 kts | 71° |
| 2026-05-04 19:58 | 32.90359 | -97.04558 | 596 ft | 2 kts | 71° |
| 2026-05-04 19:59 | 32.90360 | -97.04555 | 596 ft | 0 kts | 71° |